82C

Mauston-New Lisbon Union Airport

New Lisbon, Wisconsin, USA
METAR K82C 182215Z AUTO 17004KT 10SM SCT055 27/14 A3003 RMK AO2 T02690140
Observed Flight Rules
Jul-18 @ 22:15 UTC (16 minutes ago) Visual Flight Rules
Wind Visibility Clouds
170° at 4 knots 10 miles
  • Scattered at 5,500' AGL
Temperatures Readings
Current 27°C / 81°F
Dewpoint 14°C / 57°F
Humidity 45%
Altimeter 30.03" Hg
Pressure 1017 hPa
Elevation 276
METAR K82C 182215Z AUTO 17004KT 10SM SCT055 27/14 A3003 RMK AO2 T02690140
Observed Flight Rules
Jul-18 @ 22:15 UTC
(16 minutes ago)
VFR
Wind Visibility
170° at 4 knots 10 miles
Clouds
  • Scattered at 5,500' AGL
Temperature Dewpoint
27°C / 81°F 14°C / 57°F
Humidity Altimeter Pressure
45% 30.03" Hg 1017 hPa